Time;durP1;ratioP1;P1;durP2;ratioP2;P2;SDS_P1;SDS_P2;PMS_P1;PMS_P2;Temp;Humidity;BMP_temperature;BMP_pressure;BME280_temperature;BME280_humidity;BME280_pressure;Samples;Min_cycle;Max_cycle;Signal;HPM_P1;HPM_P2
2021/08/21 00:01:05;;;;;;;3.33;1.80;;;21.40;64.60;;;;;;5056537;28;20025;-61
2021/08/21 00:03:31;;;;;;;4.57;2.00;;;21.40;64.50;;;;;;5056368;28;20384;-61
2021/08/21 00:05:57;;;;;;;3.95;2.15;;;21.40;64.60;;;;;;5056662;28;20021;-62
2021/08/21 00:08:22;;;;;;;4.60;2.30;;;21.40;64.60;;;;;;5056278;28;20036;-61
2021/08/21 00:10:48;;;;;;;6.30;2.50;;;21.40;64.60;;;;;;5055082;28;20029;-61
2021/08/21 00:13:14;;;;;;;4.28;2.22;;;21.40;64.60;;;;;;5056189;28;20017;-61
2021/08/21 00:15:39;;;;;;;4.20;2.28;;;21.40;64.60;;;;;;5054858;28;20041;-61
2021/08/21 00:18:05;;;;;;;5.28;2.30;;;21.40;64.60;;;;;;5054842;28;20025;-64
2021/08/21 00:20:30;;;;;;;3.45;2.05;;;21.40;64.70;;;;;;5056335;28;20487;-62
2021/08/21 00:22:56;;;;;;;4.25;2.42;;;21.40;64.60;;;;;;5055972;28;20017;-61
2021/08/21 00:25:21;;;;;;;4.10;2.10;;;21.30;64.70;;;;;;5055936;28;20029;-62
2021/08/21 00:27:47;;;;;;;4.22;1.95;;;21.40;64.70;;;;;;5054685;28;20027;-62
2021/08/21 00:30:13;;;;;;;4.22;2.17;;;21.30;64.70;;;;;;5055948;28;20051;-62
2021/08/21 00:32:39;;;;;;;4.65;2.30;;;21.30;64.70;;;;;;5055907;28;20021;-62
2021/08/21 00:35:05;;;;;;;5.75;2.17;;;21.30;64.70;;;;;;5055557;28;20044;-63
2021/08/21 00:37:31;;;;;;;4.88;2.35;;;21.30;64.70;;;;;;5056084;28;20079;-62
2021/08/21 00:39:56;;;;;;;4.35;2.10;;;21.30;64.70;;;;;;5055766;28;20493;-61
2021/08/21 00:42:22;;;;;;;4.60;2.33;;;21.30;64.70;;;;;;5055718;28;20047;-61
2021/08/21 00:44:47;;;;;;;5.38;2.28;;;21.30;64.70;;;;;;5055534;28;20408;-61
2021/08/21 00:47:20;;;;;;;4.15;2.20;;;21.30;64.70;;;;;;5055523;28;20044;-61
2021/08/21 00:49:52;;;;;;;4.82;2.40;;;21.30;64.70;;;;;;5055866;28;20056;-61
2021/08/21 00:52:34;;;;;;;3.95;2.08;;;21.30;64.70;;;;;;5055700;28;20107;-61
2021/08/21 00:54:59;;;;;;;3.78;2.30;;;21.30;64.80;;;;;;5055140;28;20064;-61
2021/08/21 00:57:25;;;;;;;4.20;2.08;;;21.20;64.70;;;;;;5055505;28;20052;-62
2021/08/21 00:59:52;;;;;;;4.50;2.38;;;21.20;64.80;;;;;;5055377;28;20025;-61
2021/08/21 01:02:19;;;;;;;5.13;2.40;;;21.30;64.70;;;;;;5055387;28;20017;-61
2021/08/21 01:04:47;;;;;;;3.65;1.92;;;21.20;64.70;;;;;;5055530;28;20029;-61
2021/08/21 01:07:17;;;;;;;4.20;2.17;;;21.20;64.70;;;;;;5055485;28;20029;-61
2021/08/21 01:09:46;;;;;;;5.50;2.13;;;21.20;64.80;;;;;;5055401;28;20044;-61
2021/08/21 01:12:14;;;;;;;5.47;2.10;;;21.20;64.80;;;;;;5055001;28;20025;-61
2021/08/21 01:14:41;;;;;;;4.18;2.20;;;21.20;64.80;;;;;;5054871;28;20388;-61
2021/08/21 01:17:07;;;;;;;5.00;2.30;;;21.20;64.80;;;;;;5055064;28;20481;-61
2021/08/21 01:19:36;;;;;;;4.35;2.40;;;21.20;64.80;;;;;;5054977;28;20040;-61
2021/08/21 01:22:04;;;;;;;3.88;2.03;;;21.20;64.80;;;;;;5054984;28;20067;-61
2021/08/21 01:24:29;;;;;;;9.63;2.53;;;21.20;64.80;;;;;;5055167;28;20029;-61
2021/08/21 01:26:56;;;;;;;4.47;2.28;;;21.20;64.80;;;;;;5055081;28;20103;-62
2021/08/21 01:29:23;;;;;;;4.25;1.98;;;21.20;64.80;;;;;;5054848;28;20021;-61
2021/08/21 01:31:49;;;;;;;3.80;2.00;;;21.20;64.80;;;;;;5054809;28;20034;-61
2021/08/21 01:34:15;;;;;;;3.30;1.77;;;21.10;64.90;;;;;;5054716;28;20025;-61
2021/08/21 01:36:43;;;;;;;3.15;1.85;;;21.20;64.90;;;;;;5054613;28;20049;-62
2021/08/21 01:39:09;;;;;;;4.43;2.25;;;21.10;64.90;;;;;;5054670;28;20039;-61
2021/08/21 01:41:35;;;;;;;4.78;2.47;;;21.10;64.90;;;;;;5054598;28;20044;-61
2021/08/21 01:44:00;;;;;;;4.68;2.55;;;21.10;64.90;;;;;;5054851;28;20029;-61
2021/08/21 01:46:26;;;;;;;4.68;2.10;;;21.10;64.80;;;;;;5054571;28;20357;-62
2021/08/21 01:48:51;;;;;;;3.35;2.00;;;21.10;64.90;;;;;;5054517;28;20504;-62
2021/08/21 01:51:17;;;;;;;4.70;1.98;;;21.10;64.80;;;;;;5054491;28;20571;-61
2021/08/21 01:53:42;;;;;;;3.97;2.20;;;21.10;64.80;;;;;;5054330;28;20383;-62
2021/08/21 01:56:09;;;;;;;5.28;2.28;;;21.10;64.90;;;;;;5054326;28;20488;-61
2021/08/21 01:58:35;;;;;;;4.25;2.00;;;21.10;64.80;;;;;;5054272;28;20107;-61
2021/08/21 02:01:03;;;;;;;3.13;1.52;;;21.10;64.90;;;;;;5054529;28;20159;-61
2021/08/21 02:03:30;;;;;;;4.10;1.92;;;21.10;64.80;;;;;;5054177;28;20108;-61
2021/08/21 02:05:56;;;;;;;3.97;2.30;;;21.10;64.90;;;;;;5054370;28;20021;-61
2021/08/21 02:08:21;;;;;;;4.68;2.45;;;21.10;64.90;;;;;;5053237;28;20037;-61
2021/08/21 02:10:47;;;;;;;3.80;1.90;;;21.10;64.90;;;;;;5054053;28;20025;-61
2021/08/21 02:13:13;;;;;;;5.03;2.35;;;21.10;64.90;;;;;;5054241;28;20056;-61
2021/08/21 02:15:38;;;;;;;3.95;1.95;;;21.00;64.90;;;;;;5054140;28;20032;-62
2021/08/21 02:18:03;;;;;;;4.38;2.05;;;21.00;64.90;;;;;;5053834;28;20036;-61
2021/08/21 02:20:29;;;;;;;4.32;2.35;;;21.00;64.90;;;;;;5053851;28;20036;-62
2021/08/21 02:22:55;;;;;;;3.92;2.05;;;21.00;64.90;;;;;;5053959;28;20373;-62
2021/08/21 02:25:20;;;;;;;4.13;1.80;;;21.00;64.90;;;;;;5053744;28;20393;-62
2021/08/21 02:30:30;;;;;;;4.38;2.20;;;21.00;64.90;;;;;;5053717;28;20044;-62
2021/08/21 02:32:55;;;;;;;4.90;2.50;;;21.00;64.90;;;;;;5053609;28;20025;-61
2021/08/21 02:35:21;;;;;;;4.00;2.05;;;21.00;64.90;;;;;;5053227;28;20060;-62
2021/08/21 02:37:47;;;;;;;4.25;2.05;;;21.00;65.00;;;;;;5053788;28;20056;-61
2021/08/21 02:40:13;;;;;;;3.97;1.98;;;21.00;65.00;;;;;;5053544;28;20025;-62
2021/08/21 02:42:38;;;;;;;5.65;2.22;;;21.00;65.00;;;;;;5052191;28;20100;-62
2021/08/21 02:45:04;;;;;;;4.03;2.08;;;21.00;65.00;;;;;;5053529;28;20183;-62
2021/08/21 02:47:30;;;;;;;4.93;2.40;;;21.00;64.90;;;;;;5052081;28;20057;-62
2021/08/21 02:49:55;;;;;;;4.40;1.90;;;21.00;65.00;;;;;;5053330;28;20500;-61
2021/08/21 02:52:21;;;;;;;4.05;2.17;;;21.00;65.00;;;;;;5053204;28;20037;-62
2021/08/21 02:54:46;;;;;;;3.65;1.85;;;21.00;65.00;;;;;;5051955;28;20033;-61
2021/08/21 02:57:12;;;;;;;4.07;2.08;;;21.00;64.90;;;;;;5053285;28;20021;-62
2021/08/21 02:59:37;;;;;;;3.97;1.92;;;21.00;64.90;;;;;;5053331;28;20028;-61
2021/08/21 03:02:03;;;;;;;4.68;2.80;;;21.00;65.00;;;;;;5053362;28;20024;-60
2021/08/21 03:04:28;;;;;;;4.55;2.08;;;21.00;64.90;;;;;;5053088;28;20099;-62
2021/08/21 03:06:54;;;;;;;4.85;2.33;;;21.00;64.90;;;;;;5053021;28;20061;-62
2021/08/21 03:09:19;;;;;;;4.53;2.25;;;20.90;65.00;;;;;;5053098;28;20028;-62
2021/08/21 03:11:45;;;;;;;3.90;1.90;;;21.00;65.00;;;;;;5052886;28;20044;-62
2021/08/21 03:14:10;;;;;;;4.05;2.13;;;20.90;65.00;;;;;;5051612;28;20056;-60
2021/08/21 03:16:36;;;;;;;4.28;2.17;;;20.90;65.00;;;;;;5052950;28;20380;-60
2021/08/21 03:19:01;;;;;;;4.15;2.17;;;20.90;65.00;;;;;;5052747;28;20104;-60
2021/08/21 03:21:27;;;;;;;3.53;1.92;;;20.90;65.00;;;;;;5052814;28;20079;-62
2021/08/21 03:23:52;;;;;;;4.57;2.20;;;20.90;65.00;;;;;;5053095;28;20071;-61
2021/08/21 03:26:18;;;;;;;4.15;2.10;;;20.90;65.00;;;;;;5052929;28;20029;-60
2021/08/21 03:28:43;;;;;;;4.25;2.10;;;20.90;65.00;;;;;;5052827;28;20033;-60
2021/08/21 03:31:09;;;;;;;5.18;2.30;;;20.90;65.00;;;;;;5052851;28;20017;-60
2021/08/21 03:33:34;;;;;;;4.78;2.17;;;20.80;65.00;;;;;;5052799;28;20036;-60
2021/08/21 03:36:00;;;;;;;3.47;2.00;;;20.90;65.00;;;;;;5052522;28;20404;-60
2021/08/21 03:38:25;;;;;;;4.47;2.20;;;20.80;65.00;;;;;;5052759;28;20083;-60
2021/08/21 03:40:51;;;;;;;4.78;2.20;;;20.90;65.00;;;;;;5052753;28;20096;-60
2021/08/21 03:43:16;;;;;;;6.05;2.60;;;20.80;65.10;;;;;;5051744;28;20376;-60
2021/08/21 03:45:42;;;;;;;3.80;2.20;;;20.80;65.00;;;;;;5052994;28;20428;-60
2021/08/21 03:48:09;;;;;;;3.92;2.22;;;20.80;65.00;;;;;;5051362;28;20455;-60
2021/08/21 03:50:35;;;;;;;3.97;2.03;;;20.80;65.00;;;;;;5052650;28;20020;-60
2021/08/21 03:53:00;;;;;;;5.78;2.15;;;20.80;65.00;;;;;;5052545;28;20025;-61
2021/08/21 03:55:26;;;;;;;4.00;2.28;;;20.80;65.00;;;;;;5051154;28;20025;-60
2021/08/21 03:57:51;;;;;;;4.13;2.00;;;20.80;65.10;;;;;;5052528;28;20032;-60
2021/08/21 04:00:17;;;;;;;3.38;1.95;;;20.80;65.00;;;;;;5052505;28;20067;-60
2021/08/21 04:02:43;;;;;;;4.05;1.92;;;20.80;65.00;;;;;;5051146;28;20115;-60
2021/08/21 04:05:09;;;;;;;3.70;1.98;;;20.80;65.10;;;;;;5051824;28;20028;-60
2021/08/21 04:07:34;;;;;;;4.18;2.28;;;20.80;65.10;;;;;;5052773;28;20107;-60
2021/08/21 04:09:59;;;;;;;4.72;2.17;;;20.80;65.00;;;;;;5052586;28;20051;-61
2021/08/21 04:12:25;;;;;;;3.88;2.10;;;20.80;65.00;;;;;;5052365;28;20025;-60
2021/08/21 04:14:50;;;;;;;3.60;2.05;;;20.80;65.00;;;;;;5052343;28;20062;-61
2021/08/21 04:17:16;;;;;;;4.07;2.00;;;20.70;65.00;;;;;;5052313;28;20021;-60
2021/08/21 04:19:41;;;;;;;4.30;2.10;;;20.80;65.00;;;;;;5052514;28;20461;-60
2021/08/21 04:22:07;;;;;;;5.03;2.30;;;20.80;65.00;;;;;;5052546;28;20039;-61
2021/08/21 04:24:32;;;;;;;4.43;1.90;;;20.70;65.10;;;;;;5052557;28;20025;-60
2021/08/21 04:26:58;;;;;;;4.55;2.38;;;20.80;65.10;;;;;;5052230;28;20044;-60
2021/08/21 04:29:23;;;;;;;3.72;1.85;;;20.70;65.10;;;;;;5052265;28;20435;-60
2021/08/21 04:31:49;;;;;;;3.95;2.22;;;20.70;65.10;;;;;;5054780;28;20460;-61
2021/08/21 04:34:14;;;;;;;3.75;1.80;;;20.70;65.10;;;;;;5055793;28;20075;-60
2021/08/21 04:36:40;;;;;;;3.17;1.65;;;20.70;65.10;;;;;;5055727;28;20084;-61
2021/08/21 04:39:06;;;;;;;3.92;1.83;;;20.70;65.10;;;;;;5054560;28;20472;-60
2021/08/21 04:41:31;;;;;;;3.88;2.08;;;20.70;65.10;;;;;;5055792;28;20029;-61
2021/08/21 04:43:57;;;;;;;3.55;1.98;;;20.70;65.00;;;;;;5055718;28;20048;-60
2021/08/21 04:46:23;;;;;;;4.05;2.05;;;20.70;65.10;;;;;;5055941;28;20032;-61
2021/08/21 04:48:48;;;;;;;3.53;1.73;;;20.70;65.10;;;;;;5055830;28;20154;-61
2021/08/21 04:51:14;;;;;;;3.75;2.08;;;20.70;65.10;;;;;;5055583;28;20425;-62
2021/08/21 04:53:39;;;;;;;4.28;2.10;;;20.70;65.00;;;;;;5055803;28;20456;-61
2021/08/21 04:56:05;;;;;;;4.70;2.47;;;20.70;65.10;;;;;;5055412;28;20068;-61
2021/08/21 04:58:31;;;;;;;5.93;2.08;;;20.70;65.00;;;;;;5055450;28;20154;-62
2021/08/21 05:00:56;;;;;;;3.85;1.90;;;20.70;65.00;;;;;;5055407;28;20120;-60
2021/08/21 05:03:22;;;;;;;5.20;2.33;;;20.70;65.00;;;;;;5055254;28;20104;-61
2021/08/21 05:05:47;;;;;;;4.38;2.35;;;20.70;65.00;;;;;;5055454;28;20032;-60
2021/08/21 05:08:13;;;;;;;4.97;1.95;;;20.70;65.00;;;;;;5055247;28;20029;-60
2021/08/21 05:10:39;;;;;;;5.05;2.10;;;20.70;65.00;;;;;;5055480;28;20115;-60
2021/08/21 05:13:04;;;;;;;4.55;2.22;;;20.70;65.00;;;;;;5055159;28;20025;-60
2021/08/21 05:15:33;;;;;;;3.25;1.88;;;20.70;65.00;;;;;;5055050;28;20108;-60
2021/08/21 05:17:59;;;;;;;4.82;2.08;;;20.70;65.00;;;;;;5055262;28;20025;-61
2021/08/21 05:20:41;;;;;;;3.88;2.05;;;20.70;65.00;;;;;;5055280;28;20025;-60
2021/08/21 05:23:10;;;;;;;4.20;2.15;;;20.70;65.00;;;;;;5055022;28;20087;-61
2021/08/21 05:25:40;;;;;;;4.93;2.25;;;20.70;65.00;;;;;;5054936;28;20473;-60
2021/08/21 05:28:06;;;;;;;4.43;2.10;;;20.70;64.90;;;;;;5054889;28;20483;-61
2021/08/21 05:30:33;;;;;;;4.20;1.98;;;20.70;65.00;;;;;;5054825;28;20024;-60
2021/08/21 05:32:59;;;;;;;5.53;2.10;;;20.70;65.00;;;;;;5054847;28;20048;-61
2021/08/21 05:35:24;;;;;;;3.97;2.13;;;20.70;64.90;;;;;;5054484;28;20081;-61
2021/08/21 05:37:50;;;;;;;4.30;2.33;;;20.70;64.90;;;;;;5054759;28;20432;-61
2021/08/21 05:40:16;;;;;;;3.70;1.77;;;20.70;64.90;;;;;;5054692;28;20540;-61
2021/08/21 05:42:41;;;;;;;5.65;2.22;;;20.70;64.80;;;;;;5053426;28;20048;-61
2021/08/21 05:45:07;;;;;;;4.65;2.15;;;20.70;64.90;;;;;;5054534;28;20025;-61
2021/08/21 05:47:33;;;;;;;4.18;2.17;;;20.70;64.80;;;;;;5054616;28;20431;-60
2021/08/21 05:50:01;;;;;;;5.07;2.47;;;20.70;64.70;;;;;;5054463;28;20078;-61
2021/08/21 05:52:27;;;;;;;4.82;2.10;;;20.70;64.80;;;;;;5054407;28;20078;-61
2021/08/21 05:54:52;;;;;;;3.63;2.00;;;20.70;64.80;;;;;;5054305;28;20514;-62
2021/08/21 05:57:18;;;;;;;3.97;2.22;;;20.70;64.70;;;;;;5054369;28;20029;-61
2021/08/21 05:59:44;;;;;;;5.03;2.20;;;20.70;64.70;;;;;;5054515;28;20163;-61
2021/08/21 06:02:09;;;;;;;3.75;1.85;;;20.80;64.70;;;;;;5054441;28;20031;-61
2021/08/21 06:04:35;;;;;;;3.85;1.92;;;20.80;64.70;;;;;;5054355;28;20024;-61
2021/08/21 06:07:00;;;;;;;3.45;1.80;;;20.80;64.70;;;;;;5054402;28;20075;-61
2021/08/21 06:09:26;;;;;;;3.97;2.13;;;20.80;64.70;;;;;;5054125;28;20044;-61
2021/08/21 06:11:52;;;;;;;4.05;2.00;;;20.80;64.60;;;;;;5054128;28;20032;-61
2021/08/21 06:14:18;;;;;;;5.82;2.00;;;20.80;64.60;;;;;;5054253;28;20045;-60
2021/08/21 06:16:43;;;;;;;4.53;2.10;;;20.80;64.60;;;;;;5054192;28;20033;-61
2021/08/21 06:19:09;;;;;;;4.03;2.35;;;20.80;64.60;;;;;;5053907;28;20025;-61
2021/08/21 06:21:34;;;;;;;4.03;1.88;;;20.80;64.60;;;;;;5054130;28;20025;-61
2021/08/21 06:24:00;;;;;;;4.00;1.95;;;20.80;64.60;;;;;;5053895;28;20017;-61
2021/08/21 06:26:25;;;;;;;4.65;1.80;;;20.80;64.60;;;;;;5053783;28;20420;-61
2021/08/21 06:28:50;;;;;;;4.97;2.17;;;20.80;64.50;;;;;;5053647;28;20021;-61
2021/08/21 06:31:16;;;;;;;6.20;2.20;;;20.80;64.50;;;;;;5053684;28;20499;-61
2021/08/21 06:33:41;;;;;;;4.38;1.90;;;20.80;64.50;;;;;;5053595;28;20029;-61
2021/08/21 06:36:07;;;;;;;5.05;2.45;;;20.80;64.50;;;;;;5053428;28;20485;-61
2021/08/21 06:38:33;;;;;;;3.88;2.10;;;20.90;64.50;;;;;;5053461;28;20021;-61
2021/08/21 06:40:58;;;;;;;4.68;2.33;;;20.80;64.50;;;;;;5053600;28;20102;-60
2021/08/21 06:43:24;;;;;;;4.30;2.20;;;20.80;64.40;;;;;;5053395;28;20047;-60
2021/08/21 06:45:49;;;;;;;4.88;2.45;;;20.90;64.40;;;;;;5053364;28;20029;-60
2021/08/21 06:48:15;;;;;;;5.75;2.20;;;20.90;64.40;;;;;;5053479;28;20027;-61
2021/08/21 06:50:41;;;;;;;3.65;2.00;;;20.90;64.40;;;;;;5052877;28;20449;-60
2021/08/21 06:53:06;;;;;;;6.30;2.30;;;20.90;64.40;;;;;;5052818;28;20027;-60
2021/08/21 06:55:32;;;;;;;4.00;2.00;;;20.90;64.30;;;;;;5053082;28;20116;-62
2021/08/21 06:57:57;;;;;;;6.15;2.38;;;20.90;64.40;;;;;;5053074;28;20036;-61
2021/08/21 07:00:23;;;;;;;3.60;2.00;;;20.90;64.30;;;;;;5053374;28;20036;-62
2021/08/21 07:02:48;;;;;;;4.03;2.00;;;20.90;64.30;;;;;;5053047;28;20028;-62
2021/08/21 07:05:14;;;;;;;5.25;2.30;;;20.90;64.30;;;;;;5053184;28;20021;-60
2021/08/21 07:07:39;;;;;;;4.15;2.00;;;20.90;64.30;;;;;;5053280;28;20472;-60
2021/08/21 07:10:06;;;;;;;5.25;2.15;;;20.90;64.20;;;;;;5053076;28;20021;-60
2021/08/21 07:12:31;;;;;;;3.67;1.90;;;20.90;64.20;;;;;;5052885;28;20017;-62
2021/08/21 07:14:57;;;;;;;6.32;2.47;;;21.00;64.20;;;;;;5053061;28;20041;-60
2021/08/21 07:17:22;;;;;;;3.38;1.83;;;20.90;64.20;;;;;;5052837;28;20021;-62
2021/08/21 07:19:48;;;;;;;5.55;2.10;;;21.00;64.20;;;;;;5053158;28;20025;-60
2021/08/21 07:22:14;;;;;;;3.85;2.10;;;21.00;64.10;;;;;;5053205;28;20044;-60
2021/08/21 07:24:40;;;;;;;3.97;1.92;;;20.90;64.10;;;;;;5052890;28;20048;-60
2021/08/21 07:27:06;;;;;;;3.63;1.90;;;21.00;64.10;;;;;;5052691;28;20396;-60
2021/08/21 07:29:31;;;;;;;4.63;2.17;;;21.00;64.10;;;;;;5052800;28;20100;-60
2021/08/21 07:31:57;;;;;;;4.25;2.10;;;21.00;64.10;;;;;;5052668;28;20021;-60
2021/08/21 07:34:22;;;;;;;5.05;2.30;;;21.00;64.10;;;;;;5052708;28;20146;-61
2021/08/21 07:36:48;;;;;;;4.28;2.13;;;21.00;64.10;;;;;;5052501;28;20045;-60
2021/08/21 07:39:13;;;;;;;3.83;1.92;;;21.00;64.00;;;;;;5052769;28;20092;-62
2021/08/21 07:41:39;;;;;;;5.05;2.35;;;21.00;64.10;;;;;;5052599;28;20068;-62
2021/08/21 07:44:04;;;;;;;4.18;2.20;;;21.00;64.10;;;;;;5052686;28;20078;-62
2021/08/21 07:46:31;;;;;;;4.63;2.25;;;21.00;64.00;;;;;;5053121;28;20028;-63
2021/08/21 07:48:57;;;;;;;4.75;2.20;;;21.00;64.00;;;;;;5052682;28;20060;-62
2021/08/21 07:51:22;;;;;;;4.50;1.90;;;21.00;64.00;;;;;;5052593;28;20053;-62
2021/08/21 07:53:48;;;;;;;5.10;2.00;;;21.00;64.00;;;;;;5052528;28;20022;-62
2021/08/21 07:56:13;;;;;;;3.72;2.10;;;21.00;64.00;;;;;;5052350;28;20033;-62
2021/08/21 07:58:39;;;;;;;4.32;2.40;;;21.10;64.00;;;;;;5052422;28;20017;-62
2021/08/21 08:01:04;;;;;;;3.75;2.15;;;21.10;64.00;;;;;;5052448;28;20033;-62
2021/08/21 08:03:30;;;;;;;4.40;1.98;;;21.00;64.00;;;;;;5052573;28;20100;-62
2021/08/21 08:05:56;;;;;;;3.65;1.92;;;21.10;64.00;;;;;;5053771;28;20150;-61
2021/08/21 08:08:23;;;;;;;3.63;2.00;;;21.00;64.00;;;;;;5056201;28;20025;-62
2021/08/21 08:10:49;;;;;;;4.05;1.98;;;21.10;64.00;;;;;;5056150;28;20036;-62
2021/08/21 08:13:14;;;;;;;4.53;2.10;;;21.10;64.00;;;;;;5056286;28;20392;-62
2021/08/21 08:15:40;;;;;;;4.40;2.00;;;21.10;64.00;;;;;;5056152;28;20041;-62
2021/08/21 08:18:05;;;;;;;4.80;2.10;;;21.10;63.90;;;;;;5056245;28;20021;-62
2021/08/21 08:20:31;;;;;;;3.83;1.80;;;21.10;63.90;;;;;;5056433;28;20519;-62
2021/08/21 08:22:56;;;;;;;3.63;1.80;;;21.10;63.90;;;;;;5056085;28;20487;-62
2021/08/21 08:25:23;;;;;;;4.88;2.08;;;21.20;63.80;;;;;;5056064;28;20366;-62
2021/08/21 08:27:48;;;;;;;4.35;2.35;;;21.10;63.90;;;;;;5055864;28;20028;-62
2021/08/21 08:30:15;;;;;;;5.00;1.88;;;21.20;63.90;;;;;;5056016;28;20054;-62
2021/08/21 08:32:42;;;;;;;4.30;2.00;;;21.20;63.80;;;;;;5055836;28;20025;-62
2021/08/21 08:35:08;;;;;;;4.07;2.17;;;21.20;63.80;;;;;;5055537;28;20028;-62
2021/08/21 08:37:33;;;;;;;4.10;1.83;;;21.20;63.80;;;;;;5055817;28;20461;-62
2021/08/21 08:39:59;;;;;;;3.17;1.80;;;21.20;63.90;;;;;;5055673;28;20033;-62
2021/08/21 08:42:25;;;;;;;4.25;2.00;;;21.20;63.80;;;;;;5055802;28;20025;-63
2021/08/21 08:44:51;;;;;;;4.50;2.20;;;21.30;63.80;;;;;;5055824;28;20029;-63
2021/08/21 08:47:18;;;;;;;4.07;2.10;;;21.20;63.80;;;;;;5055841;28;20032;-62
2021/08/21 08:49:49;;;;;;;4.05;2.20;;;21.20;63.80;;;;;;5055699;28;20025;-62
2021/08/21 08:52:16;;;;;;;4.53;2.13;;;21.20;63.80;;;;;;5055679;28;20040;-62
2021/08/21 08:54:42;;;;;;;4.18;2.08;;;21.30;63.70;;;;;;5055706;28;20040;-63
2021/08/21 08:57:08;;;;;;;3.33;1.80;;;21.30;63.80;;;;;;5054163;28;20021;-62
2021/08/21 08:59:34;;;;;;;3.20;1.67;;;21.30;63.80;;;;;;5055568;28;20025;-62
2021/08/21 09:02:00;;;;;;;4.30;2.25;;;21.30;63.70;;;;;;5055334;28;20024;-62
2021/08/21 09:04:26;;;;;;;5.88;2.17;;;21.30;63.70;;;;;;5055258;28;20109;-63
2021/08/21 09:06:54;;;;;;;3.58;2.03;;;21.30;63.70;;;;;;5055238;28;20075;-62
2021/08/21 09:09:22;;;;;;;3.38;1.98;;;21.30;63.70;;;;;;5055244;28;20047;-62
2021/08/21 09:11:53;;;;;;;5.05;2.00;;;21.30;63.70;;;;;;5055178;28;20128;-62
2021/08/21 09:14:28;;;;;;;4.18;2.25;;;21.40;63.60;;;;;;5054982;28;20452;-62
2021/08/21 09:17:20;;;;;;;3.63;1.70;;;21.40;63.60;;;;;;5054783;28;20075;-62
2021/08/21 09:19:47;;;;;;;3.35;1.80;;;21.40;63.50;;;;;;5054955;28;20521;-62
2021/08/21 09:22:13;;;;;;;4.50;2.05;;;21.50;63.50;;;;;;5054964;28;20021;-62
2021/08/21 09:24:40;;;;;;;4.00;1.92;;;21.40;63.50;;;;;;5054867;28;20464;-62
2021/08/21 09:27:24;;;;;;;4.40;2.10;;;21.40;63.50;;;;;;5055136;28;20029;-62
2021/08/21 09:30:11;;;;;;;3.97;2.05;;;21.40;63.50;;;;;;5053287;28;20085;-62
2021/08/21 09:32:36;;;;;;;3.72;2.00;;;21.40;63.50;;;;;;5054739;28;20499;-62
2021/08/21 09:35:07;;;;;;;5.03;1.80;;;21.50;63.50;;;;;;5053098;28;20060;-63
2021/08/21 09:37:45;;;;;;;3.30;1.88;;;21.50;63.50;;;;;;5054965;28;20041;-62
2021/08/21 09:40:30;;;;;;;4.35;2.13;;;21.50;63.50;;;;;;5054482;28;20277;-63
2021/08/21 09:42:57;;;;;;;4.15;1.63;;;21.50;63.40;;;;;;5054400;28;20052;-62
2021/08/21 09:45:24;;;;;;;4.20;1.88;;;21.50;63.40;;;;;;5054346;28;20033;-62
2021/08/21 09:47:58;;;;;;;3.53;1.80;;;21.50;63.40;;;;;;5054140;28;20031;-62
2021/08/21 09:50:24;;;;;;;5.10;2.05;;;21.50;63.40;;;;;;5054467;28;20025;-62
2021/08/21 09:52:49;;;;;;;3.65;2.00;;;21.50;63.40;;;;;;5054145;28;20459;-62
2021/08/21 09:55:20;;;;;;;4.28;2.03;;;21.50;63.30;;;;;;5053819;28;20048;-62
2021/08/21 09:57:59;;;;;;;5.50;2.05;;;21.60;63.30;;;;;;5054124;28;20032;-62
2021/08/21 10:00:27;;;;;;;3.67;1.90;;;21.50;63.20;;;;;;5052866;28;20377;-62
2021/08/21 10:02:55;;;;;;;4.22;1.92;;;21.60;63.20;;;;;;5054168;28;20017;-63
2021/08/21 10:05:21;;;;;;;4.03;2.13;;;21.50;63.20;;;;;;5053870;28;20021;-62
2021/08/21 10:07:51;;;;;;;5.32;2.17;;;21.60;63.20;;;;;;5053895;28;20028;-62
2021/08/21 10:10:18;;;;;;;6.65;2.08;;;21.60;63.10;;;;;;5053863;28;20021;-63
2021/08/21 10:12:45;;;;;;;4.30;1.90;;;21.60;63.10;;;;;;5052560;28;20021;-62
2021/08/21 10:15:13;;;;;;;3.95;1.90;;;21.60;63.20;;;;;;5053988;28;20124;-62
2021/08/21 10:17:41;;;;;;;4.43;2.20;;;21.70;63.10;;;;;;5053919;28;20021;-62
2021/08/21 10:20:07;;;;;;;3.95;2.00;;;21.70;63.10;;;;;;5052446;28;20504;-62
2021/08/21 10:22:34;;;;;;;4.35;1.90;;;21.70;63.10;;;;;;5053505;28;20025;-62
2021/08/21 10:25:05;;;;;;;4.22;1.95;;;21.70;63.10;;;;;;5053366;28;20108;-62
2021/08/21 10:27:38;;;;;;;3.75;2.03;;;21.70;63.10;;;;;;5053580;28;20017;-62
2021/08/21 10:30:05;;;;;;;2.97;1.70;;;21.70;63.00;;;;;;5053215;28;20028;-62
2021/08/21 10:32:36;;;;;;;3.85;1.70;;;21.70;63.00;;;;;;5053662;28;20036;-61
2021/08/21 10:35:04;;;;;;;4.53;2.13;;;21.80;62.90;;;;;;5052990;28;20492;-62
2021/08/21 10:37:30;;;;;;;3.20;1.50;;;21.80;62.90;;;;;;5051976;28;20432;-62
2021/08/21 10:39:56;;;;;;;3.85;1.92;;;21.80;62.90;;;;;;5052036;28;20078;-61
2021/08/21 10:42:30;;;;;;;3.55;1.70;;;21.80;62.90;;;;;;5053355;28;20029;-61
2021/08/21 10:44:58;;;;;;;3.88;1.92;;;21.80;63.00;;;;;;5053255;28;20051;-61
2021/08/21 10:47:30;;;;;;;4.95;2.10;;;21.80;62.90;;;;;;5051897;28;20531;-61
2021/08/21 10:49:57;;;;;;;3.38;1.63;;;21.90;62.90;;;;;;5053138;28;20020;-61
2021/08/21 10:52:46;;;;;;;3.55;1.70;;;21.90;62.90;;;;;;5053296;28;20033;-62
2021/08/21 10:55:15;;;;;;;3.08;1.63;;;21.90;62.80;;;;;;5053124;28;20108;-62
2021/08/21 10:58:01;;;;;;;3.25;1.77;;;22.00;62.70;;;;;;5053207;28;20028;-62
2021/08/21 11:00:38;;;;;;;5.50;1.63;;;22.00;62.70;;;;;;5052823;28;20021;-62
2021/08/21 11:03:04;;;;;;;3.45;1.75;;;22.00;62.70;;;;;;5051528;28;20024;-62
2021/08/21 11:05:52;;;;;;;4.32;2.00;;;22.00;62.60;;;;;;5052970;28;20456;-62
2021/08/21 11:08:18;;;;;;;3.20;1.58;;;22.00;62.60;;;;;;5052913;28;20096;-62
2021/08/21 11:10:45;;;;;;;3.17;1.77;;;22.00;62.60;;;;;;5052855;28;20025;-61
2021/08/21 11:13:13;;;;;;;3.83;2.10;;;22.00;62.60;;;;;;5052793;28;20025;-62
2021/08/21 11:15:39;;;;;;;3.42;1.90;;;22.00;62.60;;;;;;5052879;28;20384;-62
2021/08/21 11:18:20;;;;;;;3.20;1.80;;;22.00;62.60;;;;;;5052961;28;20017;-62
2021/08/21 11:20:46;;;;;;;3.90;1.90;;;22.10;62.60;;;;;;5052729;28;20021;-62
2021/08/21 11:23:12;;;;;;;4.22;1.88;;;22.10;62.50;;;;;;5052639;28;20021;-62
2021/08/21 11:25:44;;;;;;;5.25;2.00;;;22.20;62.30;;;;;;5052620;28;20504;-62
2021/08/21 11:28:28;;;;;;;3.28;1.67;;;22.10;62.40;;;;;;5052759;28;20021;-62
2021/08/21 11:31:10;;;;;;;3.60;1.70;;;22.20;62.40;;;;;;5051510;28;20041;-62
2021/08/21 11:33:41;;;;;;;3.40;1.67;;;22.20;62.30;;;;;;5052869;28;20025;-62
2021/08/21 11:36:10;;;;;;;2.78;1.50;;;22.20;62.30;;;;;;5052542;28;20049;-62
2021/08/21 11:38:39;;;;;;;3.35;1.90;;;22.20;62.40;;;;;;5052499;28;20021;-62
2021/08/21 11:41:11;;;;;;;4.50;2.05;;;22.30;62.20;;;;;;5055998;28;20033;-61
2021/08/21 11:43:41;;;;;;;4.97;1.60;;;22.20;62.20;;;;;;5057037;28;20033;-62
2021/08/21 11:46:07;;;;;;;2.50;1.38;;;22.20;62.30;;;;;;5055424;28;20171;-61
2021/08/21 11:48:35;;;;;;;4.15;1.90;;;22.20;62.30;;;;;;5056719;28;20033;-62
2021/08/21 11:51:03;;;;;;;3.60;1.80;;;22.20;62.30;;;;;;5056661;28;20025;-62
2021/08/21 11:53:36;;;;;;;2.92;1.50;;;22.30;62.20;;;;;;5056561;28;20480;-62
2021/08/21 11:56:02;;;;;;;3.75;1.95;;;22.30;62.10;;;;;;5056408;28;20044;-62
2021/08/21 11:58:33;;;;;;;2.97;1.50;;;22.40;62.00;;;;;;5056489;28;20033;-61
2021/08/21 12:01:03;;;;;;;3.90;1.80;;;22.40;61.90;;;;;;5056482;28;20021;-61
2021/08/21 12:06:28;;;;;;;2.72;1.50;;;22.50;61.70;;;;;;5044953;28;20060;-62
2021/08/21 12:09:10;;;;;;;3.25;1.65;;;22.60;61.60;;;;;;5054843;28;20021;-61
2021/08/21 12:11:59;;;;;;;3.28;1.77;;;22.60;61.50;;;;;;5056152;28;20021;-61
2021/08/21 12:14:25;;;;;;;2.53;1.58;;;22.70;61.40;;;;;;5055965;28;20449;-62
2021/08/21 12:16:55;;;;;;;2.83;1.60;;;22.70;61.30;;;;;;5055859;28;20357;-61
2021/08/21 12:19:22;;;;;;;3.58;1.88;;;22.80;61.20;;;;;;5055971;28;20060;-62
2021/08/21 12:21:49;;;;;;;3.08;1.70;;;22.90;61.10;;;;;;5056008;28;20033;-61
2021/08/21 12:24:14;;;;;;;3.33;1.58;;;22.90;61.10;;;;;;5055804;28;20024;-61
2021/08/21 12:26:41;;;;;;;3.95;1.95;;;22.90;61.00;;;;;;5055819;28;20103;-61
2021/08/21 12:29:23;;;;;;;3.60;2.05;;;23.00;60.90;;;;;;5055722;28;20108;-61
2021/08/21 12:31:50;;;;;;;3.67;1.88;;;23.00;60.80;;;;;;5055736;28;20108;-61
2021/08/21 12:34:17;;;;;;;2.58;1.55;;;23.00;60.80;;;;;;5056010;28;20108;-61
2021/08/21 12:36:44;;;;;;;4.03;1.80;;;23.10;60.60;;;;;;5055659;28;20053;-62
2021/08/21 12:39:24;;;;;;;3.17;1.52;;;23.20;60.50;;;;;;5055695;28;20469;-61
2021/08/21 12:42:02;;;;;;;3.47;1.42;;;23.20;60.40;;;;;;5054439;28;20029;-62
2021/08/21 12:44:38;;;;;;;3.17;1.60;;;23.30;60.40;;;;;;5055770;28;20040;-61
2021/08/21 12:47:11;;;;;;;4.53;1.75;;;23.40;60.20;;;;;;5055662;28;20021;-61
2021/08/21 12:49:42;;;;;;;3.63;1.60;;;23.40;60.10;;;;;;5055671;28;20029;-62
2021/08/21 12:52:11;;;;;;;3.42;1.55;;;23.50;60.10;;;;;;5054774;28;20052;-62
2021/08/21 12:54:41;;;;;;;2.60;1.35;;;23.50;60.10;;;;;;5055621;28;20072;-61